Time;durP1;ratioP1;P1;durP2;ratioP2;P2;SDS_P1;SDS_P2;PMS_P1;PMS_P2;Temp;Humidity;BMP_temperature;BMP_pressure;BME280_temperature;BME280_humidity;BME280_pressure;Samples;Min_cycle;Max_cycle;Signal;HPM_P1;HPM_P2
2023/06/25 00:00:28;;;;;;;0.20;0.20;;;18.20;99.90;;;;;;5062977;28;20048;-68
2023/06/25 00:02:53;;;;;;;0.50;0.50;;;18.00;99.90;;;;;;5060597;28;20460;-69
2023/06/25 00:05:20;;;;;;;0.32;0.32;;;18.00;99.90;;;;;;5061559;28;20525;-68
2023/06/25 00:07:46;;;;;;;0.60;0.60;;;18.00;99.90;;;;;;5062919;28;20053;-68
2023/06/25 00:10:12;;;;;;;0.65;0.65;;;17.90;99.90;;;;;;5065074;28;20056;-69
2023/06/25 00:12:38;;;;;;;0.57;0.57;;;17.90;99.90;;;;;;5061433;28;20135;-68
2023/06/25 00:15:04;;;;;;;0.30;0.30;;;17.90;99.90;;;;;;5064354;28;20041;-68
2023/06/25 00:17:29;;;;;;;0.17;0.17;;;17.90;99.90;;;;;;5060712;28;20060;-68
2023/06/25 00:19:56;;;;;;;0.28;0.28;;;17.80;99.90;;;;;;5062544;28;20040;-69
2023/06/25 00:22:23;;;;;;;0.22;0.22;;;17.80;99.90;;;;;;5063004;28;20053;-68
2023/06/25 00:24:49;;;;;;;0.20;0.20;;;17.70;99.90;;;;;;5064028;28;20052;-68
2023/06/25 00:27:15;;;;;;;0.20;0.20;;;17.90;99.90;;;;;;5058858;28;20571;-68
2023/06/25 00:29:40;;;;;;;0.50;0.47;;;17.80;99.90;;;;;;5066908;28;20044;-68
2023/06/25 00:32:07;;;;;;;0.57;0.57;;;17.80;99.90;;;;;;5061089;28;20056;-68
2023/06/25 00:34:40;;;;;;;0.35;0.35;;;17.80;99.90;;;;;;5058693;28;20160;-68
2023/06/25 00:37:16;;;;;;;0.70;0.70;;;17.80;99.90;;;;;;5061747;28;20052;-69
2023/06/25 00:39:46;;;;;;;0.32;0.32;;;17.80;99.90;;;;;;5060693;28;20518;-68
2023/06/25 00:42:12;;;;;;;0.40;0.40;;;17.60;99.90;;;;;;5065004;28;20438;-68
2023/06/25 00:44:41;;;;;;;0.22;0.22;;;17.60;99.90;;;;;;5062477;28;20048;-68
2023/06/25 00:47:15;;;;;;;0.30;0.30;;;17.60;99.90;;;;;;5060744;28;20051;-68
2023/06/25 00:49:43;;;;;;;0.30;0.30;;;17.60;99.90;;;;;;5064507;28;20052;-68
2023/06/25 00:52:11;;;;;;;0.30;0.30;;;17.60;99.90;;;;;;5066161;28;20053;-68
2023/06/25 00:54:38;;;;;;;0.47;0.47;;;17.60;99.90;;;;;;5067478;28;20040;-68
2023/06/25 00:57:05;;;;;;;1.05;0.95;;;17.50;99.90;;;;;;5064967;28;20052;-68
2023/06/25 00:59:31;;;;;;;0.30;0.30;;;17.50;99.90;;;;;;5064801;28;20110;-68
2023/06/25 01:02:05;;;;;;;0.45;0.45;;;17.50;99.90;;;;;;5067415;28;20044;-68
2023/06/25 01:04:37;;;;;;;0.30;0.30;;;17.40;99.90;;;;;;5059183;28;20052;-68
2023/06/25 01:07:11;;;;;;;0.75;0.75;;;17.40;99.90;;;;;;5060068;28;20052;-68
2023/06/25 01:09:38;;;;;;;0.30;0.30;;;17.40;99.90;;;;;;5060111;28;20041;-68
2023/06/25 01:12:05;;;;;;;0.75;0.75;;;17.30;99.90;;;;;;5061177;28;20060;-68
2023/06/25 01:14:33;;;;;;;0.50;0.50;;;17.30;99.90;;;;;;5061849;28;20048;-68
2023/06/25 01:16:59;;;;;;;0.50;0.50;;;17.30;99.90;;;;;;5060113;28;20070;-68
2023/06/25 01:19:31;;;;;;;0.40;0.40;;;17.40;99.90;;;;;;5046195;28;20040;-68
2023/06/25 01:22:04;;;;;;;0.20;0.20;;;17.20;99.90;;;;;;5059693;28;20083;-68
2023/06/25 01:24:34;;;;;;;0.20;0.20;;;17.10;99.90;;;;;;5061661;28;20044;-68
2023/06/25 01:27:00;;;;;;;0.30;0.30;;;17.20;99.90;;;;;;5064091;28;20465;-68
2023/06/25 01:29:27;;;;;;;0.50;0.50;;;17.10;99.90;;;;;;5063896;28;20094;-68
2023/06/25 01:31:53;;;;;;;0.32;0.32;;;17.10;99.90;;;;;;5062451;28;20251;-68
2023/06/25 01:34:20;;;;;;;0.50;0.50;;;17.30;99.90;;;;;;5062917;28;20836;-69
2023/06/25 01:36:50;;;;;;;0.52;0.52;;;17.20;99.90;;;;;;5061350;28;20044;-68
2023/06/25 01:39:17;;;;;;;0.40;0.40;;;17.20;99.90;;;;;;5061197;28;20048;-69
2023/06/25 01:41:43;;;;;;;0.30;0.30;;;17.00;99.90;;;;;;5061805;28;20060;-68
2023/06/25 01:44:26;;;;;;;0.38;0.38;;;17.20;99.90;;;;;;5064218;28;20036;-68
2023/06/25 01:46:53;;;;;;;0.30;0.30;;;17.10;99.90;;;;;;5060642;28;20509;-68
2023/06/25 01:49:18;;;;;;;0.47;0.47;;;17.00;99.90;;;;;;5062237;28;20050;-70
2023/06/25 01:51:44;;;;;;;1.00;0.73;;;17.00;99.90;;;;;;5064833;28;20044;-68
2023/06/25 01:54:10;;;;;;;0.32;0.32;;;16.90;99.90;;;;;;5063495;28;20530;-68
2023/06/25 01:56:36;;;;;;;0.40;0.40;;;17.00;99.90;;;;;;5064760;28;20111;-68
2023/06/25 01:59:02;;;;;;;1.38;1.20;;;17.00;99.90;;;;;;5061779;28;20466;-68
2023/06/25 02:01:29;;;;;;;2.92;0.60;;;16.90;99.90;;;;;;5058719;28;20052;-68
2023/06/25 02:03:56;;;;;;;0.20;0.20;;;17.00;99.90;;;;;;5062208;28;20764;-68
2023/06/25 02:06:21;;;;;;;0.60;0.60;;;17.00;99.90;;;;;;5063242;28;20032;-68
2023/06/25 02:08:47;;;;;;;0.45;0.45;;;16.80;99.90;;;;;;5064025;28;20048;-68
2023/06/25 02:11:13;;;;;;;0.40;0.40;;;17.00;99.90;;;;;;5062099;28;20125;-69
2023/06/25 02:13:38;;;;;;;0.30;0.30;;;16.80;99.90;;;;;;5060965;28;20045;-68
2023/06/25 02:16:04;;;;;;;0.20;0.20;;;16.80;99.90;;;;;;5060705;28;20102;-68
2023/06/25 02:18:32;;;;;;;0.50;0.50;;;16.80;99.90;;;;;;5063746;28;20090;-68
2023/06/25 02:20:58;;;;;;;0.43;0.43;;;16.80;99.90;;;;;;5059519;28;20724;-69
2023/06/25 02:23:24;;;;;;;0.68;0.68;;;16.90;99.90;;;;;;5059803;28;20048;-68
2023/06/25 02:25:50;;;;;;;0.30;0.30;;;16.80;99.90;;;;;;5058453;28;20048;-68
2023/06/25 02:28:16;;;;;;;0.52;0.52;;;16.70;99.90;;;;;;5060141;28;20056;-68
2023/06/25 02:30:42;;;;;;;0.25;0.25;;;16.70;99.90;;;;;;5060729;28;20095;-68
2023/06/25 02:33:08;;;;;;;0.98;0.63;;;16.70;99.90;;;;;;5062428;28;20476;-68
2023/06/25 02:35:33;;;;;;;0.60;0.60;;;16.90;99.90;;;;;;5060840;28;20040;-68
2023/06/25 02:37:59;;;;;;;0.50;0.50;;;16.80;99.90;;;;;;5060925;28;20230;-68
2023/06/25 02:40:27;;;;;;;0.52;0.52;;;16.70;99.90;;;;;;5059309;28;20149;-68
2023/06/25 02:42:53;;;;;;;0.50;0.50;;;16.80;99.90;;;;;;5056159;28;20785;-68
2023/06/25 02:45:19;;;;;;;0.75;0.75;;;16.90;99.90;;;;;;5058825;28;20186;-69
2023/06/25 02:47:50;;;;;;;0.30;0.30;;;16.60;99.90;;;;;;5060728;28;20041;-69
2023/06/25 02:50:16;;;;;;;0.57;0.57;;;16.60;99.90;;;;;;5060571;28;20135;-68
2023/06/25 02:52:43;;;;;;;0.52;0.52;;;16.60;99.90;;;;;;5059829;28;20507;-69
2023/06/25 02:55:09;;;;;;;0.40;0.40;;;16.70;99.90;;;;;;5060772;28;20079;-70
2023/06/25 02:57:37;;;;;;;0.65;0.65;;;16.80;99.90;;;;;;5059650;28;20044;-69
2023/06/25 03:00:07;;;;;;;1.13;1.02;;;16.60;99.90;;;;;;5057894;28;20706;-70
2023/06/25 03:02:33;;;;;;;0.40;0.40;;;16.50;99.90;;;;;;5056699;28;20044;-69
2023/06/25 03:04:58;;;;;;;0.63;0.40;;;16.70;99.90;;;;;;5058666;28;20032;-69
2023/06/25 03:07:24;;;;;;;0.20;0.20;;;16.60;99.90;;;;;;5057765;28;20044;-69
2023/06/25 03:09:49;;;;;;;0.55;0.55;;;16.50;99.90;;;;;;5056573;28;20110;-68
2023/06/25 03:12:15;;;;;;;0.28;0.28;;;16.50;99.90;;;;;;5075321;28;20482;-68
2023/06/25 03:14:41;;;;;;;0.52;0.52;;;16.50;99.90;;;;;;5058892;28;20052;-69
2023/06/25 03:17:07;;;;;;;0.40;0.40;;;16.50;99.90;;;;;;5059836;28;20051;-68
2023/06/25 03:19:33;;;;;;;0.30;0.30;;;16.50;99.90;;;;;;5060668;28;20044;-68
2023/06/25 03:21:58;;;;;;;0.30;0.30;;;16.70;99.90;;;;;;5062188;28;20515;-68
2023/06/25 03:24:24;;;;;;;0.65;0.65;;;16.50;99.90;;;;;;5060476;28;20059;-68
2023/06/25 03:26:50;;;;;;;0.40;0.40;;;16.40;99.90;;;;;;5058965;28;20512;-68
2023/06/25 03:29:16;;;;;;;0.30;0.30;;;16.40;99.90;;;;;;5064177;28;20173;-68
2023/06/25 03:31:42;;;;;;;0.30;0.30;;;16.40;99.90;;;;;;5058435;28;20426;-68
2023/06/25 03:34:07;;;;;;;0.20;0.20;;;16.40;99.90;;;;;;5063267;28;20060;-68
2023/06/25 03:36:33;;;;;;;0.40;0.40;;;16.60;99.90;;;;;;5061364;28;20064;-68
2023/06/25 03:38:59;;;;;;;0.30;0.30;;;16.60;99.90;;;;;;5062951;28;20037;-68
2023/06/25 03:41:25;;;;;;;0.30;0.30;;;16.40;99.90;;;;;;5064206;28;20064;-68
2023/06/25 03:43:51;;;;;;;0.30;0.30;;;16.40;99.90;;;;;;5065017;28;20044;-68
2023/06/25 03:46:17;;;;;;;0.30;0.30;;;16.60;99.90;;;;;;5062831;28;20117;-68
2023/06/25 03:48:43;;;;;;;0.57;0.57;;;16.50;99.90;;;;;;5060639;28;20045;-68
2023/06/25 03:51:10;;;;;;;0.30;0.30;;;16.60;99.90;;;;;;5063512;28;20053;-68
2023/06/25 03:53:38;;;;;;;0.60;0.60;;;16.60;99.90;;;;;;5060218;28;20072;-68
2023/06/25 03:56:04;;;;;;;0.30;0.30;;;16.40;99.90;;;;;;5065564;28;20048;-68
2023/06/25 03:58:29;;;;;;;0.30;0.30;;;16.60;99.90;;;;;;5064666;28;20717;-68
2023/06/25 04:00:55;;;;;;;0.30;0.30;;;16.40;99.90;;;;;;5068128;28;20093;-68
2023/06/25 04:03:21;;;;;;;0.35;0.35;;;16.40;99.90;;;;;;5064873;28;20469;-68
2023/06/25 04:05:48;;;;;;;0.73;0.73;;;16.40;99.90;;;;;;5062760;28;20072;-68
2023/06/25 04:08:13;;;;;;;0.98;0.98;;;16.50;99.90;;;;;;5063999;28;20087;-68
2023/06/25 04:10:45;;;;;;;1.95;1.40;;;16.50;99.90;;;;;;5062924;28;20474;-68
2023/06/25 04:13:11;;;;;;;0.45;0.45;;;16.80;99.90;;;;;;5062521;28;20045;-69
2023/06/25 04:15:36;;;;;;;1.23;0.75;;;16.50;99.90;;;;;;5060067;28;20059;-68
2023/06/25 04:18:03;;;;;;;0.30;0.30;;;16.70;99.90;;;;;;5063867;28;20497;-68
2023/06/25 04:20:29;;;;;;;0.40;0.40;;;16.60;99.90;;;;;;5063502;28;20083;-68
2023/06/25 04:22:55;;;;;;;2.05;0.60;;;16.80;99.90;;;;;;5062912;28;20044;-68
2023/06/25 04:25:21;;;;;;;0.32;0.32;;;16.70;99.90;;;;;;5061723;28;20051;-68
2023/06/25 04:27:48;;;;;;;0.57;0.52;;;17.00;99.90;;;;;;5065117;28;20036;-68
2023/06/25 04:30:14;;;;;;;0.40;0.40;;;17.00;99.90;;;;;;5059928;28;20071;-68
2023/06/25 04:32:39;;;;;;;3.83;0.73;;;16.80;99.90;;;;;;5061425;28;20139;-68
2023/06/25 04:35:06;;;;;;;0.50;0.50;;;16.90;99.90;;;;;;5063813;28;20043;-68
2023/06/25 04:37:31;;;;;;;1.10;1.10;;;17.20;99.90;;;;;;5063121;28;20489;-68
2023/06/25 04:39:57;;;;;;;0.40;0.40;;;17.00;99.90;;;;;;5063568;28;20044;-68
2023/06/25 04:42:23;;;;;;;0.47;0.47;;;17.20;99.90;;;;;;5066404;28;20033;-68
2023/06/25 04:44:51;;;;;;;0.47;0.47;;;17.10;99.90;;;;;;5061582;28;20048;-68
2023/06/25 04:47:16;;;;;;;;;;;17.30;99.90;;;;;;5060693;28;20047;-67
2023/06/25 04:49:42;;;;;;;0.57;0.57;;;17.20;99.90;;;;;;5044866;28;19924;-68
2023/06/25 04:52:08;;;;;;;0.82;0.82;;;17.10;99.90;;;;;;5064856;28;20436;-68
2023/06/25 04:54:33;;;;;;;0.40;0.40;;;17.40;99.90;;;;;;5062491;28;20452;-68
2023/06/25 04:56:59;;;;;;;0.55;0.55;;;17.30;99.90;;;;;;5065091;28;20113;-69
2023/06/25 04:59:25;;;;;;;1.25;1.15;;;17.40;99.90;;;;;;5061983;28;20048;-69
2023/06/25 05:01:51;;;;;;;2.17;0.60;;;17.40;99.90;;;;;;5074055;28;20070;-68
2023/06/25 05:04:17;;;;;;;1.05;1.05;;;17.50;99.90;;;;;;5066367;28;20045;-68
2023/06/25 05:06:43;;;;;;;1.75;1.52;;;17.30;99.90;;;;;;5072492;28;20856;-68
2023/06/25 05:09:08;;;;;;;0.38;0.38;;;17.40;99.90;;;;;;5067016;28;20052;-68
2023/06/25 05:11:34;;;;;;;0.93;0.93;;;17.40;99.90;;;;;;5061113;28;20128;-68
2023/06/25 05:13:59;;;;;;;1.50;1.00;;;17.50;99.90;;;;;;5047710;28;20053;-68
2023/06/25 05:16:25;;;;;;;0.60;0.60;;;17.50;99.90;;;;;;5047460;28;20045;-68
2023/06/25 05:18:51;;;;;;;2.53;2.40;;;17.60;99.90;;;;;;5055845;28;20044;-68
2023/06/25 05:21:16;;;;;;;0.70;0.70;;;17.90;99.90;;;;;;5076270;28;20036;-68
2023/06/25 05:23:44;;;;;;;2.03;1.83;;;17.70;99.90;;;;;;5066886;28;20132;-68
2023/06/25 05:26:10;;;;;;;0.95;0.90;;;17.80;99.90;;;;;;5057265;28;20041;-68
2023/06/25 05:28:36;;;;;;;1.25;1.25;;;17.90;99.90;;;;;;5063559;28;20053;-68
2023/06/25 05:31:02;;;;;;;1.00;0.98;;;17.80;99.90;;;;;;5057330;28;20052;-68
2023/06/25 05:33:28;;;;;;;1.88;1.23;;;17.90;99.90;;;;;;5058640;28;20044;-69
2023/06/25 05:35:53;;;;;;;0.98;0.98;;;18.10;99.90;;;;;;5064957;28;20043;-68
2023/06/25 05:38:19;;;;;;;1.33;0.88;;;18.10;99.90;;;;;;5065297;28;20048;-67
2023/06/25 05:40:45;;;;;;;5.68;3.47;;;18.30;99.90;;;;;;5060766;28;20051;-67
2023/06/25 05:43:11;;;;;;;1.83;1.63;;;18.30;99.90;;;;;;5059015;28;20469;-67
2023/06/25 05:45:36;;;;;;;2.25;1.92;;;18.30;99.90;;;;;;5070028;28;20112;-68
2023/06/25 05:48:02;;;;;;;3.13;2.05;;;18.60;99.90;;;;;;5066195;28;20058;-68
2023/06/25 05:50:28;;;;;;;1.42;1.33;;;18.50;99.90;;;;;;5065038;28;20147;-68
2023/06/25 05:52:53;;;;;;;1.60;1.50;;;18.70;99.90;;;;;;5061862;28;20044;-68
2023/06/25 05:55:19;;;;;;;2.88;2.38;;;19.00;99.90;;;;;;5059537;28;20036;-68
2023/06/25 05:57:45;;;;;;;2.85;1.90;;;18.80;99.90;;;;;;5061359;28;20082;-68
2023/06/25 06:00:11;;;;;;;2.50;2.28;;;19.20;99.90;;;;;;5063932;28;20040;-67
2023/06/25 06:02:36;;;;;;;0.60;0.60;;;19.10;99.90;;;;;;5064434;28;20064;-67
2023/06/25 06:05:04;;;;;;;1.15;1.00;;;19.20;99.90;;;;;;5063780;28;20036;-67
2023/06/25 06:07:29;;;;;;;1.98;1.88;;;19.50;99.90;;;;;;5060362;28;20101;-68
2023/06/25 06:09:55;;;;;;;2.10;1.85;;;19.40;99.90;;;;;;5064317;28;20040;-68
2023/06/25 06:12:21;;;;;;;1.48;1.42;;;19.70;99.90;;;;;;5058203;28;20113;-67
2023/06/25 06:14:46;;;;;;;1.88;1.55;;;19.90;99.90;;;;;;5063924;28;20074;-68
2023/06/25 06:17:13;;;;;;;2.28;2.05;;;19.80;99.90;;;;;;5057802;28;20875;-68
2023/06/25 06:19:39;;;;;;;2.20;1.80;;;19.90;99.90;;;;;;5059288;28;20071;-68
2023/06/25 06:22:04;;;;;;;2.10;2.00;;;20.10;99.90;;;;;;5060836;28;20611;-68
2023/06/25 06:24:30;;;;;;;4.60;3.25;;;20.20;99.90;;;;;;5060236;28;20123;-68
2023/06/25 06:26:56;;;;;;;3.65;1.70;;;20.30;99.90;;;;;;5062681;28;20049;-67
2023/06/25 06:29:21;;;;;;;2.70;2.55;;;20.40;99.90;;;;;;5061474;28;20051;-67
2023/06/25 06:31:47;;;;;;;2.90;2.35;;;20.60;99.90;;;;;;5062607;28;20090;-67
2023/06/25 06:34:13;;;;;;;3.50;3.20;;;20.80;99.90;;;;;;5065228;28;20033;-68
2023/06/25 06:36:39;;;;;;;3.53;2.08;;;20.80;99.90;;;;;;5064687;28;20921;-68
2023/06/25 06:39:05;;;;;;;1.77;1.42;;;20.90;99.90;;;;;;5062856;28;20080;-68
2023/06/25 06:41:30;;;;;;;1.90;1.80;;;21.20;99.90;;;;;;5060182;28;20053;-68
2023/06/25 06:44:16;;;;;;;2.00;1.52;;;21.40;99.90;;;;;;5056571;28;20079;-68
2023/06/25 06:46:43;;;;;;;3.30;3.00;;;21.80;99.90;;;;;;5061138;28;20037;-67
2023/06/25 06:49:09;;;;;;;1.08;0.95;;;21.80;99.90;;;;;;5060565;28;20067;-69
2023/06/25 06:51:36;;;;;;;1.92;1.70;;;22.10;99.90;;;;;;5066806;28;20497;-69
2023/06/25 06:54:03;;;;;;;1.73;1.63;;;22.30;99.90;;;;;;5064756;28;20051;-70
2023/06/25 06:56:29;;;;;;;2.05;1.88;;;22.80;99.90;;;;;;5074502;28;20109;-67
2023/06/25 06:58:55;;;;;;;1.45;1.35;;;23.00;99.90;;;;;;5063661;28;20049;-67
2023/06/25 07:01:21;;;;;;;3.67;3.38;;;23.20;99.90;;;;;;5069790;28;20044;-67
2023/06/25 07:03:46;;;;;;;1.42;1.02;;;23.30;99.90;;;;;;5071801;28;20550;-67
2023/06/25 07:06:12;;;;;;;2.08;1.98;;;23.40;99.90;;;;;;5070951;28;20044;-67
2023/06/25 07:08:38;;;;;;;3.25;2.10;;;23.80;99.90;;;;;;5066003;28;20044;-67
2023/06/25 07:11:03;;;;;;;0.98;0.98;;;23.90;99.90;;;;;;5059214;28;20099;-68
2023/06/25 07:13:30;;;;;;;1.65;1.45;;;24.20;99.90;;;;;;5065455;28;20043;-67
2023/06/25 07:15:55;;;;;;;1.45;1.17;;;24.60;99.90;;;;;;5074936;28;20045;-67
2023/06/25 07:18:21;;;;;;;2.95;1.83;;;24.60;99.90;;;;;;5061165;28;20036;-67
2023/06/25 07:20:47;;;;;;;1.25;1.17;;;24.80;99.90;;;;;;5057845;28;20090;-67
2023/06/25 07:23:12;;;;;;;1.40;1.30;;;25.00;99.90;;;;;;5066333;28;20064;-67
2023/06/25 07:25:38;;;;;;;1.08;1.08;;;25.30;99.90;;;;;;5066682;28;20088;-67
2023/06/25 07:28:04;;;;;;;1.42;1.33;;;25.60;99.90;;;;;;5068023;28;20041;-67
2023/06/25 07:30:30;;;;;;;1.88;1.77;;;25.70;99.90;;;;;;5076573;28;20129;-67
2023/06/25 07:32:57;;;;;;;3.00;2.08;;;26.00;99.90;;;;;;5051653;28;20063;-68
2023/06/25 07:35:23;;;;;;;1.77;1.67;;;25.90;99.90;;;;;;5074992;28;20093;-67
2023/06/25 07:37:48;;;;;;;1.65;1.08;;;26.00;99.90;;;;;;5072877;28;20044;-67
2023/06/25 07:40:14;;;;;;;2.25;1.17;;;26.20;99.90;;;;;;5069571;28;20124;-68
2023/06/25 07:42:41;;;;;;;1.00;1.00;;;26.40;99.90;;;;;;5076432;28;20025;-68
2023/06/25 07:45:07;;;;;;;1.00;0.97;;;26.60;99.90;;;;;;5079812;28;20402;-67
2023/06/25 07:47:33;;;;;;;2.35;2.15;;;26.90;99.90;;;;;;5065260;28;20080;-68
2023/06/25 07:49:59;;;;;;;1.90;1.80;;;27.10;99.90;;;;;;5068129;28;20086;-67
2023/06/25 07:52:24;;;;;;;2.28;2.15;;;27.30;99.90;;;;;;5070781;28;20044;-67
2023/06/25 07:54:50;;;;;;;1.42;1.33;;;27.40;99.90;;;;;;5069874;28;20076;-67
2023/06/25 07:57:16;;;;;;;1.25;1.25;;;27.60;99.90;;;;;;5064357;28;20045;-67
2023/06/25 07:59:42;;;;;;;2.97;1.80;;;27.80;99.90;;;;;;5062061;28;20048;-67
2023/06/25 08:02:07;;;;;;;1.02;1.02;;;27.90;99.90;;;;;;5067485;28;20175;-67
2023/06/25 08:04:33;;;;;;;2.50;2.30;;;28.00;99.90;;;;;;5069452;28;20124;-67
2023/06/25 08:06:59;;;;;;;2.58;2.30;;;28.00;99.90;;;;;;5064665;28;20857;-67
2023/06/25 08:09:24;;;;;;;2.38;2.28;;;27.90;99.90;;;;;;5064852;28;20057;-69
2023/06/25 08:11:50;;;;;;;2.45;2.25;;;27.90;99.90;;;;;;5062887;28;20071;-67
2023/06/25 08:14:16;;;;;;;2.78;2.42;;;28.00;99.90;;;;;;5059862;28;20056;-68
2023/06/25 08:16:41;;;;;;;3.80;3.35;;;28.10;99.90;;;;;;5065689;28;20056;-67
2023/06/25 08:19:07;;;;;;;2.22;2.13;;;28.20;99.90;;;;;;5067623;28;20506;-67
2023/06/25 08:21:33;;;;;;;1.98;1.80;;;28.40;99.90;;;;;;5067038;28;20124;-67
2023/06/25 08:23:58;;;;;;;1.58;1.48;;;28.60;99.90;;;;;;5064338;28;20128;-68
2023/06/25 08:26:24;;;;;;;2.03;1.92;;;28.80;99.90;;;;;;5064494;28;20083;-68
2023/06/25 08:28:50;;;;;;;4.53;2.28;;;28.80;99.90;;;;;;5059025;28;20519;-69
2023/06/25 08:31:16;;;;;;;3.97;3.03;;;29.00;99.90;;;;;;5061072;28;20064;-67
2023/06/25 08:33:43;;;;;;;2.22;2.13;;;29.10;99.90;;;;;;5062090;28;20044;-67
2023/06/25 08:36:08;;;;;;;2.22;2.13;;;29.20;99.90;;;;;;5064923;28;20037;-67
2023/06/25 08:38:35;;;;;;;4.43;3.15;;;29.20;99.90;;;;;;5062023;28;20056;-68
2023/06/25 08:41:02;;;;;;;2.22;2.13;;;29.40;99.90;;;;;;5064210;28;20074;-67
2023/06/25 08:43:27;;;;;;;2.10;2.00;;;29.60;99.90;;;;;;5064643;28;20047;-67
2023/06/25 08:45:53;;;;;;;2.08;1.90;;;29.60;99.90;;;;;;5065371;28;20056;-68
2023/06/25 08:48:21;;;;;;;2.53;2.42;;;29.90;99.90;;;;;;5047323;28;20048;-68
2023/06/25 08:50:54;;;;;;;1.73;1.38;;;30.10;99.90;;;;;;5064839;28;20052;-67
2023/06/25 08:53:24;;;;;;;2.45;1.83;;;30.10;99.90;;;;;;5060795;28;20617;-67
2023/06/25 08:55:51;;;;;;;2.25;1.98;;;30.30;99.90;;;;;;5063645;28;20048;-67
2023/06/25 08:58:17;;;;;;;2.95;2.75;;;30.60;99.90;;;;;;5063985;28;20047;-67
2023/06/25 09:00:42;;;;;;;3.47;3.15;;;30.80;99.90;;;;;;5063374;28;20040;-67
2023/06/25 09:03:08;;;;;;;1.83;1.73;;;30.50;99.90;;;;;;5065019;28;20154;-68
2023/06/25 09:05:34;;;;;;;2.05;1.95;;;30.60;99.90;;;;;;5057178;28;20638;-68
2023/06/25 09:08:00;;;;;;;2.05;1.85;;;30.60;99.90;;;;;;5059549;28;20061;-67
2023/06/25 09:10:30;;;;;;;1.98;1.88;;;30.80;99.90;;;;;;5061111;28;20043;-68
2023/06/25 09:12:56;;;;;;;2.75;2.55;;;30.90;99.90;;;;;;5055493;28;20548;-68
2023/06/25 09:15:23;;;;;;;1.38;1.38;;;31.00;99.90;;;;;;5058783;28;20131;-68
2023/06/25 09:17:53;;;;;;;7.47;3.97;;;31.00;99.90;;;;;;5061636;28;21341;-68
2023/06/25 09:20:21;;;;;;;3.13;2.92;;;31.20;99.90;;;;;;5056926;28;20048;-68
2023/06/25 09:22:55;;;;;;;2.92;2.70;;;31.00;99.90;;;;;;5065595;28;20123;-68
2023/06/25 09:25:27;;;;;;;2.38;1.58;;;31.10;99.90;;;;;;5060057;28;20128;-68
2023/06/25 09:27:53;;;;;;;5.95;3.53;;;31.30;99.90;;;;;;5061073;28;20548;-68
2023/06/25 09:30:22;;;;;;;2.47;2.35;;;31.30;99.90;;;;;;5062315;28;20056;-68
2023/06/25 09:32:54;;;;;;;0.85;0.85;;;31.50;99.90;;;;;;5061252;28;20051;-68
2023/06/25 09:35:22;;;;;;;1.35;1.25;;;31.50;99.90;;;;;;5057159;28;20091;-68
2023/06/25 09:37:49;;;;;;;2.55;2.38;;;31.70;99.90;;;;;;5061316;28;20044;-68
2023/06/25 09:40:15;;;;;;;2.38;2.17;;;31.70;99.90;;;;;;5058949;28;20091;-68
2023/06/25 09:42:43;;;;;;;1.80;1.70;;;31.80;99.90;;;;;;5069673;28;21004;-68
2023/06/25 09:45:14;;;;;;;2.38;1.20;;;31.80;99.90;;;;;;5065930;28;20055;-67
2023/06/25 09:47:42;;;;;;;1.42;1.40;;;31.70;99.90;;;;;;5063598;28;20052;-67
2023/06/25 09:50:14;;;;;;;1.58;1.50;;;31.70;99.90;;;;;;5059487;28;20052;-68
2023/06/25 09:52:43;;;;;;;4.20;3.80;;;31.60;99.90;;;;;;5058657;28;20044;-68
2023/06/25 09:55:10;;;;;;;1.75;1.65;;;31.70;99.90;;;;;;5064675;28;20496;-68
2023/06/25 09:57:35;;;;;;;;;;;31.90;99.90;;;;;;5059934;28;20049;-68
2023/06/25 10:00:04;;;;;;;2.93;2.73;;;31.90;99.90;;;;;;5060938;28;19924;-68
2023/06/25 10:02:30;;;;;;;3.08;2.80;;;31.90;99.40;;;;;;5061695;28;20044;-68
2023/06/25 10:04:56;;;;;;;1.40;1.30;;;32.00;99.30;;;;;;5059668;28;20098;-68
2023/06/25 10:07:24;;;;;;;2.53;2.03;;;32.10;99.70;;;;;;5061278;28;20048;-68
2023/06/25 10:09:56;;;;;;;2.47;1.73;;;32.00;99.50;;;;;;5061717;28;20052;-68
2023/06/25 10:12:22;;;;;;;3.53;2.15;;;32.20;99.30;;;;;;5062372;28;20439;-68
2023/06/25 10:14:49;;;;;;;2.70;2.17;;;32.20;99.60;;;;;;5057902;28;20040;-68
2023/06/25 10:17:15;;;;;;;1.40;1.30;;;32.30;98.90;;;;;;5057203;28;20039;-68
2023/06/25 10:20:02;;;;;;;1.73;1.63;;;32.20;98.60;;;;;;5059374;28;20053;-68
2023/06/25 10:22:28;;;;;;;1.35;1.35;;;32.10;97.90;;;;;;5054029;28;20053;-69
2023/06/25 10:24:55;;;;;;;1.35;1.25;;;32.20;97.80;;;;;;5055797;28;20102;-69
2023/06/25 10:27:21;;;;;;;1.13;1.13;;;32.50;97.30;;;;;;5057400;28;20516;-68
2023/06/25 10:29:47;;;;;;;1.80;1.53;;;32.50;98.40;;;;;;5057338;28;20562;-68
2023/06/25 10:32:17;;;;;;;1.30;1.27;;;32.80;97.10;;;;;;5059408;28;20171;-69
2023/06/25 10:34:43;;;;;;;1.05;1.05;;;33.10;97.20;;;;;;5044650;28;20178;-68
2023/06/25 10:37:12;;;;;;;1.77;1.67;;;32.90;96.30;;;;;;5056050;28;20052;-68
2023/06/25 10:39:39;;;;;;;0.75;0.75;;;33.00;96.80;;;;;;5056361;28;20110;-68
2023/06/25 10:42:05;;;;;;;2.22;2.13;;;33.00;95.80;;;;;;5057840;28;20139;-68
2023/06/25 10:44:32;;;;;;;3.25;1.33;;;33.00;96.70;;;;;;5056352;28;20078;-68
2023/06/25 10:47:03;;;;;;;1.83;1.73;;;32.90;96.20;;;;;;5056721;28;20032;-69
2023/06/25 10:49:29;;;;;;;1.17;1.13;;;33.00;96.20;;;;;;5056343;28;20052;-68
2023/06/25 10:51:58;;;;;;;4.57;1.60;;;33.30;95.30;;;;;;5059315;28;20055;-69
2023/06/25 10:54:24;;;;;;;1.33;1.27;;;33.50;95.20;;;;;;5054495;28;20514;-70
2023/06/25 10:56:54;;;;;;;3.08;1.80;;;33.60;95.50;;;;;;5057997;28;20032;-68
2023/06/25 10:59:23;;;;;;;1.98;1.88;;;33.60;94.40;;;;;;5054886;28;20098;-69
2023/06/25 11:01:51;;;;;;;0.70;0.70;;;33.50;94.40;;;;;;5054899;28;20822;-68
2023/06/25 11:04:17;;;;;;;1.40;1.40;;;33.40;94.50;;;;;;5057321;28;20067;-68
2023/06/25 11:06:43;;;;;;;1.25;1.25;;;33.50;94.50;;;;;;5062305;28;20769;-68
2023/06/25 11:09:10;;;;;;;2.97;2.78;;;33.40;94.60;;;;;;5060341;28;20048;-68
2023/06/25 11:11:37;;;;;;;2.20;2.10;;;33.30;94.00;;;;;;5061850;28;20048;-68
2023/06/25 11:14:03;;;;;;;1.98;1.88;;;33.40;94.20;;;;;;5064141;28;20875;-68
2023/06/25 11:16:28;;;;;;;2.55;1.88;;;33.40;93.70;;;;;;5064887;28;20055;-68
2023/06/25 11:18:54;;;;;;;1.15;1.15;;;33.40;93.60;;;;;;5061191;28;20048;-68
2023/06/25 11:21:20;;;;;;;1.95;1.85;;;33.20;93.50;;;;;;5060366;28;20043;-68
2023/06/25 11:23:46;;;;;;;5.30;2.00;;;33.40;94.50;;;;;;5064109;28;20036;-68
2023/06/25 11:26:14;;;;;;;1.00;1.00;;;33.20;93.70;;;;;;5065576;28;20494;-68
2023/06/25 11:28:40;;;;;;;1.63;1.50;;;33.00;94.30;;;;;;5072784;28;20083;-68
2023/06/25 11:31:06;;;;;;;2.08;1.98;;;33.20;93.90;;;;;;5067648;28;20076;-68
2023/06/25 11:33:31;;;;;;;2.60;2.28;;;33.10;93.70;;;;;;5062313;28;20276;-69
2023/06/25 11:36:11;;;;;;;1.75;1.65;;;33.40;92.60;;;;;;5064209;28;20043;-68
2023/06/25 11:38:36;;;;;;;4.07;2.67;;;33.50;93.00;;;;;;5063174;28;20085;-69
2023/06/25 11:41:04;;;;;;;2.95;2.65;;;33.60;92.20;;;;;;5062699;28;20986;-69
2023/06/25 11:43:32;;;;;;;2.55;2.45;;;33.20;91.70;;;;;;5064883;28;20040;-68
2023/06/25 11:46:02;;;;;;;0.82;0.82;;;33.00;90.70;;;;;;5066409;28;20389;-68
2023/06/25 11:48:29;;;;;;;1.23;1.15;;;33.20;91.40;;;;;;5063455;28;20145;-69
2023/06/25 11:51:05;;;;;;;2.13;1.98;;;33.40;91.10;;;;;;5065806;28;20047;-68
2023/06/25 11:53:31;;;;;;;1.15;1.13;;;33.80;92.20;;;;;;5064362;28;20049;-69
2023/06/25 11:55:57;;;;;;;1.75;1.65;;;33.80;91.80;;;;;;5063892;28;20066;-68
2023/06/25 11:58:24;;;;;;;2.22;2.05;;;33.90;91.50;;;;;;5063709;28;20113;-68
2023/06/25 12:00:50;;;;;;;1.25;1.25;;;34.40;90.20;;;;;;5065553;28;20125;-69
2023/06/25 12:03:15;;;;;;;0.83;0.83;;;34.70;90.20;;;;;;5065192;28;20044;-68
2023/06/25 12:05:41;;;;;;;0.98;0.98;;;34.90;88.10;;;;;;5062114;28;20528;-68
2023/06/25 12:08:07;;;;;;;0.82;0.82;;;35.00;89.70;;;;;;5065437;28;20063;-68
2023/06/25 12:10:32;;;;;;;2.53;2.40;;;35.20;90.30;;;;;;5065192;28;20045;-68
2023/06/25 12:12:58;;;;;;;0.88;0.88;;;35.10;88.20;;;;;;5065137;28;20040;-68
2023/06/25 12:15:23;;;;;;;0.80;0.80;;;35.00;90.20;;;;;;5064397;28;20467;-68
2023/06/25 12:17:49;;;;;;;1.30;1.23;;;35.10;89.10;;;;;;5056448;28;20052;-68
2023/06/25 12:20:15;;;;;;;0.90;0.90;;;35.30;90.00;;;;;;5059120;28;20073;-68
2023/06/25 12:22:41;;;;;;;0.77;0.77;;;35.40;87.50;;;;;;5060767;28;20057;-68
2023/06/25 12:25:07;;;;;;;0.60;0.60;;;35.60;86.00;;;;;;5060703;28;20041;-68
2023/06/25 12:27:32;;;;;;;1.43;1.33;;;35.70;86.50;;;;;;5061019;28;20053;-68
2023/06/25 12:29:58;;;;;;;1.80;1.70;;;35.70;87.00;;;;;;5041201;28;20041;-68
2023/06/25 12:32:24;;;;;;;0.63;0.63;;;35.70;86.60;;;;;;5060779;28;20045;-68
2023/06/25 12:34:49;;;;;;;0.93;0.93;;;35.80;85.00;;;;;;5061319;28;20036;-68
2023/06/25 12:37:16;;;;;;;0.97;0.97;;;36.00;84.50;;;;;;5058028;28;20124;-69
2023/06/25 12:39:41;;;;;;;2.45;2.35;;;35.90;85.60;;;;;;5058130;28;20553;-68
2023/06/25 12:42:07;;;;;;;2.00;1.90;;;35.80;84.10;;;;;;5057172;28;20047;-69
2023/06/25 12:44:33;;;;;;;1.07;1.07;;;35.80;84.00;;;;;;5058306;28;20036;-67